sensor_id;sensor_type;location;lat;lon;timestamp;pressure;altitude;pressure_sealevel;temperature;humidity
39487;BME280;25173;50.430;18.926;2023-02-16T00:02:59;99113.78;;;5.13;60.46
39487;BME280;25173;50.430;18.926;2023-02-16T00:06:00;99121.28;;;5.11;60.38
39487;BME280;25173;50.430;18.926;2023-02-16T00:09:01;99113.38;;;5.09;60.67
39487;BME280;25173;50.430;18.926;2023-02-16T00:12:01;99112.56;;;5.08;60.66
39487;BME280;25173;50.430;18.926;2023-02-16T00:15:21;99096.78;;;5.05;60.83
39487;BME280;25173;50.430;18.926;2023-02-16T00:18:21;99105.50;;;5.07;60.72
39487;BME280;25173;50.430;18.926;2023-02-16T00:21:22;99104.88;;;5.05;60.75
39487;BME280;25173;50.430;18.926;2023-02-16T00:24:23;99099.25;;;5.07;60.73
39487;BME280;25173;50.430;18.926;2023-02-16T00:27:25;99102.19;;;5.05;60.86
39487;BME280;25173;50.430;18.926;2023-02-16T00:30:26;99111.16;;;4.99;61.10
39487;BME280;25173;50.430;18.926;2023-02-16T00:33:28;99106.19;;;4.96;61.03
39487;BME280;25173;50.430;18.926;2023-02-16T00:36:28;99105.13;;;4.97;61.06
39487;BME280;25173;50.430;18.926;2023-02-16T00:39:29;99097.69;;;4.93;61.06
39487;BME280;25173;50.430;18.926;2023-02-16T00:42:31;99083.19;;;4.87;61.12
39487;BME280;25173;50.430;18.926;2023-02-16T00:45:36;99099.38;;;4.87;61.31
39487;BME280;25173;50.430;18.926;2023-02-16T00:48:37;99089.63;;;4.86;61.33
39487;BME280;25173;50.430;18.926;2023-02-16T00:51:37;99085.00;;;4.93;61.23
39487;BME280;25173;50.430;18.926;2023-02-16T00:54:38;99099.38;;;4.87;61.30
39487;BME280;25173;50.430;18.926;2023-02-16T00:57:45;99089.16;;;4.89;61.45
39487;BME280;25173;50.430;18.926;2023-02-16T01:00:53;99089.59;;;4.93;61.22
39487;BME280;25173;50.430;18.926;2023-02-16T01:03:54;99085.19;;;4.98;61.32
39487;BME280;25173;50.430;18.926;2023-02-16T01:06:56;99088.09;;;4.97;61.27
39487;BME280;25173;50.430;18.926;2023-02-16T01:10:18;99083.31;;;4.99;61.27
39487;BME280;25173;50.430;18.926;2023-02-16T01:13:46;99075.00;;;5.00;61.17
39487;BME280;25173;50.430;18.926;2023-02-16T01:16:47;99068.81;;;4.93;61.26
39487;BME280;25173;50.430;18.926;2023-02-16T01:19:48;99056.38;;;4.92;61.26
39487;BME280;25173;50.430;18.926;2023-02-16T01:22:50;99054.31;;;4.88;61.33
39487;BME280;25173;50.430;18.926;2023-02-16T01:25:50;99051.63;;;4.88;61.42
39487;BME280;25173;50.430;18.926;2023-02-16T01:28:51;99059.75;;;4.81;61.57
39487;BME280;25173;50.430;18.926;2023-02-16T01:31:54;99061.22;;;4.77;61.87
39487;BME280;25173;50.430;18.926;2023-02-16T01:34:55;99065.94;;;4.82;61.83
39487;BME280;25173;50.430;18.926;2023-02-16T01:37:55;99052.88;;;4.85;61.68
39487;BME280;25173;50.430;18.926;2023-02-16T01:41:23;99057.84;;;4.88;61.99
39487;BME280;25173;50.430;18.926;2023-02-16T01:44:29;99050.78;;;4.87;61.67
39487;BME280;25173;50.430;18.926;2023-02-16T01:47:50;99051.22;;;4.84;61.50
39487;BME280;25173;50.430;18.926;2023-02-16T01:51:13;99042.53;;;4.76;61.93
39487;BME280;25173;50.430;18.926;2023-02-16T01:54:30;99042.56;;;4.69;62.11
39487;BME280;25173;50.430;18.926;2023-02-16T01:57:46;99048.41;;;4.66;62.24
39487;BME280;25173;50.430;18.926;2023-02-16T02:03:56;99044.63;;;4.67;62.14
39487;BME280;25173;50.430;18.926;2023-02-16T02:07:28;99041.34;;;4.65;62.13
39487;BME280;25173;50.430;18.926;2023-02-16T02:10:59;99041.78;;;4.62;62.36
39487;BME280;25173;50.430;18.926;2023-02-16T02:14:06;99033.06;;;4.60;62.42
39487;BME280;25173;50.430;18.926;2023-02-16T02:17:12;99047.59;;;4.59;62.32
39487;BME280;25173;50.430;18.926;2023-02-16T02:27:23;99048.06;;;4.43;62.64
39487;BME280;25173;50.430;18.926;2023-02-16T02:34:15;99044.13;;;4.39;63.06
39487;BME280;25173;50.430;18.926;2023-02-16T02:37:46;99052.03;;;4.40;62.88
39487;BME280;25173;50.430;18.926;2023-02-16T02:44:08;99048.91;;;4.43;62.62
39487;BME280;25173;50.430;18.926;2023-02-16T02:47:09;99055.53;;;4.41;62.41
39487;BME280;25173;50.430;18.926;2023-02-16T02:54:41;99050.59;;;4.24;62.85
39487;BME280;25173;50.430;18.926;2023-02-16T02:58:03;99046.88;;;4.25;63.00
39487;BME280;25173;50.430;18.926;2023-02-16T03:01:24;99055.59;;;4.27;62.99
39487;BME280;25173;50.430;18.926;2023-02-16T03:04:27;99048.53;;;4.26;62.84
39487;BME280;25173;50.430;18.926;2023-02-16T03:07:30;99048.94;;;4.23;62.92
39487;BME280;25173;50.430;18.926;2023-02-16T03:10:51;99042.53;;;4.24;62.95
39487;BME280;25173;50.430;18.926;2023-02-16T03:14:31;99041.31;;;4.20;63.18
39487;BME280;25173;50.430;18.926;2023-02-16T03:17:34;99040.88;;;4.17;63.15
39487;BME280;25173;50.430;18.926;2023-02-16T03:20:55;99037.38;;;4.10;63.31
39487;BME280;25173;50.430;18.926;2023-02-16T03:24:23;99032.78;;;4.17;63.16
39487;BME280;25173;50.430;18.926;2023-02-16T03:27:44;99033.44;;;4.12;63.34
39487;BME280;25173;50.430;18.926;2023-02-16T03:31:05;99035.09;;;4.13;63.42
39487;BME280;25173;50.430;18.926;2023-02-16T03:34:07;99039.88;;;4.11;63.48
39487;BME280;25173;50.430;18.926;2023-02-16T03:37:08;99029.50;;;4.08;63.47
39487;BME280;25173;50.430;18.926;2023-02-16T03:40:12;99019.97;;;4.06;63.69
39487;BME280;25173;50.430;18.926;2023-02-16T03:43:28;99018.72;;;4.02;63.70
39487;BME280;25173;50.430;18.926;2023-02-16T03:46:29;99032.03;;;3.97;63.88
39487;BME280;25173;50.430;18.926;2023-02-16T03:49:30;99020.63;;;3.95;64.15
39487;BME280;25173;50.430;18.926;2023-02-16T03:52:30;99016.25;;;3.94;64.04
39487;BME280;25173;50.430;18.926;2023-02-16T03:55:36;99034.28;;;3.93;63.98
39487;BME280;25173;50.430;18.926;2023-02-16T03:58:37;99024.56;;;3.92;65.53
39487;BME280;25173;50.430;18.926;2023-02-16T04:01:37;99028.09;;;3.86;64.55
39487;BME280;25173;50.430;18.926;2023-02-16T04:04:38;99023.34;;;3.81;64.24
39487;BME280;25173;50.430;18.926;2023-02-16T04:07:38;99025.84;;;3.83;64.41
39487;BME280;25173;50.430;18.926;2023-02-16T04:10:39;99022.50;;;3.87;64.29
39487;BME280;25173;50.430;18.926;2023-02-16T04:13:40;99015.03;;;3.89;64.19
39487;BME280;25173;50.430;18.926;2023-02-16T04:16:40;99008.41;;;3.92;64.04
39487;BME280;25173;50.430;18.926;2023-02-16T04:19:41;99007.97;;;3.95;64.09
39487;BME280;25173;50.430;18.926;2023-02-16T04:22:42;99000.91;;;3.94;63.97
39487;BME280;25173;50.430;18.926;2023-02-16T04:25:42;99010.66;;;3.95;64.30
39487;BME280;25173;50.430;18.926;2023-02-16T04:28:43;99008.78;;;4.02;64.23
39487;BME280;25173;50.430;18.926;2023-02-16T04:31:43;98996.56;;;4.06;64.04
39487;BME280;25173;50.430;18.926;2023-02-16T04:34:44;99005.22;;;4.08;64.00
39487;BME280;25173;50.430;18.926;2023-02-16T04:37:45;99003.59;;;4.07;63.94
39487;BME280;25173;50.430;18.926;2023-02-16T04:40:46;99009.00;;;4.07;64.02
39487;BME280;25173;50.430;18.926;2023-02-16T04:43:47;99003.81;;;4.06;64.00
39487;BME280;25173;50.430;18.926;2023-02-16T04:46:47;99003.41;;;4.02;64.12
39487;BME280;25173;50.430;18.926;2023-02-16T04:49:48;99002.97;;;4.05;64.18
39487;BME280;25173;50.430;18.926;2023-02-16T04:52:49;99004.66;;;4.06;64.03
39487;BME280;25173;50.430;18.926;2023-02-16T04:55:49;99009.63;;;4.03;63.95
39487;BME280;25173;50.430;18.926;2023-02-16T04:58:50;99001.34;;;3.98;64.17
39487;BME280;25173;50.430;18.926;2023-02-16T05:01:51;98996.56;;;3.93;64.09
39487;BME280;25173;50.430;18.926;2023-02-16T05:04:52;98993.88;;;3.93;64.27
39487;BME280;25173;50.430;18.926;2023-02-16T05:07:53;98992.66;;;3.89;64.27
39487;BME280;25173;50.430;18.926;2023-02-16T05:10:54;98993.06;;;3.86;64.36
39487;BME280;25173;50.430;18.926;2023-02-16T05:17:42;99001.78;;;3.81;64.70
39487;BME280;25173;50.430;18.926;2023-02-16T05:20:42;98993.69;;;3.81;64.65
39487;BME280;25173;50.430;18.926;2023-02-16T05:24:04;98993.69;;;3.81;64.56
39487;BME280;25173;50.430;18.926;2023-02-16T05:27:07;98995.16;;;3.84;64.47
39487;BME280;25173;50.430;18.926;2023-02-16T05:30:09;98987.91;;;3.84;64.63
39487;BME280;25173;50.430;18.926;2023-02-16T05:33:10;98995.16;;;3.84;64.56
39487;BME280;25173;50.430;18.926;2023-02-16T05:36:10;98996.81;;;3.85;64.63
39487;BME280;25173;50.430;18.926;2023-02-16T05:39:11;98997.41;;;3.87;64.54
39487;BME280;25173;50.430;18.926;2023-02-16T05:42:11;98999.69;;;3.90;64.52
39487;BME280;25173;50.430;18.926;2023-02-16T05:45:12;99002.59;;;3.95;64.40
39487;BME280;25173;50.430;18.926;2023-02-16T05:48:13;99007.56;;;3.98;64.21
39487;BME280;25173;50.430;18.926;2023-02-16T05:51:13;99003.84;;;3.99;64.39
39487;BME280;25173;50.430;18.926;2023-02-16T05:54:14;98997.78;;;4.04;64.52
39487;BME280;25173;50.430;18.926;2023-02-16T05:57:18;99007.09;;;4.08;64.27
39487;BME280;25173;50.430;18.926;2023-02-16T06:00:18;99012.50;;;4.08;64.18
39487;BME280;25173;50.430;18.926;2023-02-16T06:03:19;99010.63;;;4.08;64.30
39487;BME280;25173;50.430;18.926;2023-02-16T06:06:20;99013.31;;;4.08;64.34
39487;BME280;25173;50.430;18.926;2023-02-16T06:09:21;99024.53;;;4.05;64.35
39487;BME280;25173;50.430;18.926;2023-02-16T06:12:21;99019.16;;;4.05;64.47
39487;BME280;25173;50.430;18.926;2023-02-16T06:15:23;99027.66;;;4.02;64.43
39487;BME280;25173;50.430;18.926;2023-02-16T06:18:25;99028.28;;;3.98;64.56
39487;BME280;25173;50.430;18.926;2023-02-16T06:21:26;99030.78;;;3.99;64.79
39487;BME280;25173;50.430;18.926;2023-02-16T06:24:26;99028.69;;;3.95;64.79
39487;BME280;25173;50.430;18.926;2023-02-16T06:27:27;99025.41;;;3.93;64.93
39487;BME280;25173;50.430;18.926;2023-02-16T06:30:28;99019.41;;;3.90;65.31
39487;BME280;25173;50.430;18.926;2023-02-16T06:33:28;99017.31;;;3.93;65.42
39487;BME280;25173;50.430;18.926;2023-02-16T06:36:30;99024.56;;;3.99;65.32
39487;BME280;25173;50.430;18.926;2023-02-16T06:39:30;99025.41;;;3.99;65.44
39487;BME280;25173;50.430;18.926;2023-02-16T06:42:31;99022.69;;;3.99;65.47
39487;BME280;25173;50.430;18.926;2023-02-16T06:45:32;99019.34;;;4.04;65.65
39487;BME280;25173;50.430;18.926;2023-02-16T06:48:33;99031.38;;;4.14;65.56
39487;BME280;25173;50.430;18.926;2023-02-16T06:51:33;99029.47;;;4.21;65.60
39487;BME280;25173;50.430;18.926;2023-02-16T06:54:34;99030.50;;;4.27;65.59
39487;BME280;25173;50.430;18.926;2023-02-16T06:57:35;99031.13;;;4.29;65.60
39487;BME280;25173;50.430;18.926;2023-02-16T07:00:35;99032.34;;;4.33;65.84
39487;BME280;25173;50.430;18.926;2023-02-16T07:03:36;99026.72;;;4.41;65.79
39487;BME280;25173;50.430;18.926;2023-02-16T07:06:36;99024.59;;;4.50;65.55
39487;BME280;25173;50.430;18.926;2023-02-16T07:09:37;99031.44;;;4.59;65.60
39487;BME280;25173;50.430;18.926;2023-02-16T07:12:38;99039.69;;;4.64;65.61
39487;BME280;25173;50.430;18.926;2023-02-16T07:15:39;99036.13;;;4.70;65.68
39487;BME280;25173;50.430;18.926;2023-02-16T07:18:39;99037.72;;;4.84;65.53
39487;BME280;25173;50.430;18.926;2023-02-16T07:21:40;99037.03;;;4.95;65.19
39487;BME280;25173;50.430;18.926;2023-02-16T07:24:41;99030.78;;;5.01;65.34
39487;BME280;25173;50.430;18.926;2023-02-16T07:27:41;99044.84;;;5.10;65.25
39487;BME280;25173;50.430;18.926;2023-02-16T07:30:42;99045.69;;;5.11;65.11
39487;BME280;25173;50.430;18.926;2023-02-16T07:33:43;99035.25;;;5.14;65.52
39487;BME280;25173;50.430;18.926;2023-02-16T07:36:44;99044.81;;;5.17;65.43
39487;BME280;25173;50.430;18.926;2023-02-16T07:39:45;99038.94;;;5.20;65.50
39487;BME280;25173;50.430;18.926;2023-02-16T07:42:45;99027.25;;;5.32;65.42
39487;BME280;25173;50.430;18.926;2023-02-16T07:45:46;99033.38;;;5.46;65.32
39487;BME280;25173;50.430;18.926;2023-02-16T07:48:49;99036.22;;;5.51;65.23
39487;BME280;25173;50.430;18.926;2023-02-16T07:51:50;99020.78;;;5.58;65.07
39487;BME280;25173;50.430;18.926;2023-02-16T07:54:50;99028.19;;;5.69;65.12
39487;BME280;25173;50.430;18.926;2023-02-16T07:57:51;99026.41;;;5.81;64.89
39487;BME280;25173;50.430;18.926;2023-02-16T08:01:07;99012.22;;;5.93;64.45
39487;BME280;25173;50.430;18.926;2023-02-16T08:04:08;99009.66;;;5.98;64.68
39487;BME280;25173;50.430;18.926;2023-02-16T08:07:13;99012.06;;;6.06;64.73
39487;BME280;25173;50.430;18.926;2023-02-16T08:10:16;99020.34;;;6.11;64.22
39487;BME280;25173;50.430;18.926;2023-02-16T08:13:16;99012.81;;;6.13;64.45
39487;BME280;25173;50.430;18.926;2023-02-16T08:16:19;99013.09;;;6.23;64.22
39487;BME280;25173;50.430;18.926;2023-02-16T08:19:20;99016.13;;;6.33;63.85
39487;BME280;25173;50.430;18.926;2023-02-16T08:22:21;99021.25;;;6.41;64.05
39487;BME280;25173;50.430;18.926;2023-02-16T08:25:21;99025.97;;;6.46;63.74
39487;BME280;25173;50.430;18.926;2023-02-16T08:28:22;99021.06;;;6.54;63.98
39487;BME280;25173;50.430;18.926;2023-02-16T08:31:29;99020.00;;;6.74;63.94
39487;BME280;25173;50.430;18.926;2023-02-16T08:34:30;99011.72;;;6.87;63.64
39487;BME280;25173;50.430;18.926;2023-02-16T08:37:32;99014.59;;;7.04;63.42
39487;BME280;25173;50.430;18.926;2023-02-16T08:40:32;99033.69;;;7.09;63.09
39487;BME280;25173;50.430;18.926;2023-02-16T08:43:34;99022.44;;;7.23;63.09
39487;BME280;25173;50.430;18.926;2023-02-16T08:46:37;99024.59;;;7.33;62.76
39487;BME280;25173;50.430;18.926;2023-02-16T08:49:38;99027.19;;;7.39;62.77
39487;BME280;25173;50.430;18.926;2023-02-16T08:52:39;99030.03;;;7.56;62.59
39487;BME280;25173;50.430;18.926;2023-02-16T08:55:40;99022.75;;;7.68;62.26
39487;BME280;25173;50.430;18.926;2023-02-16T08:58:40;99022.75;;;7.68;61.75
39487;BME280;25173;50.430;18.926;2023-02-16T09:01:41;99023.59;;;7.69;61.86
39487;BME280;25173;50.430;18.926;2023-02-16T09:04:41;99028.78;;;7.82;62.27
39487;BME280;25173;50.430;18.926;2023-02-16T09:07:42;99028.53;;;7.95;61.61
39487;BME280;25173;50.430;18.926;2023-02-16T09:10:42;99025.13;;;8.11;61.46
39487;BME280;25173;50.430;18.926;2023-02-16T09:13:44;99025.00;;;8.18;61.16
39487;BME280;25173;50.430;18.926;2023-02-16T09:16:46;99033.38;;;8.28;60.98
39487;BME280;25173;50.430;18.926;2023-02-16T09:19:47;99041.19;;;8.36;60.65
39487;BME280;25173;50.430;18.926;2023-02-16T09:22:48;99035.25;;;8.39;60.58
39487;BME280;25173;50.430;18.926;2023-02-16T09:25:49;99052.72;;;8.43;60.28
39487;BME280;25173;50.430;18.926;2023-02-16T09:28:50;99043.88;;;8.48;60.22
39487;BME280;25173;50.430;18.926;2023-02-16T09:31:53;99048.34;;;8.54;60.18
39487;BME280;25173;50.430;18.926;2023-02-16T09:34:54;99045.38;;;8.55;59.92
39487;BME280;25173;50.430;18.926;2023-02-16T09:37:54;99048.78;;;8.63;59.70
39487;BME280;25173;50.430;18.926;2023-02-16T09:40:56;99043.22;;;8.69;59.90
39487;BME280;25173;50.430;18.926;2023-02-16T09:47:24;99034.78;;;8.82;59.28
39487;BME280;25173;50.430;18.926;2023-02-16T09:50:27;99028.97;;;8.90;59.25
39487;BME280;25173;50.430;18.926;2023-02-16T09:53:41;99027.53;;;9.00;58.73
39487;BME280;25173;50.430;18.926;2023-02-16T09:56:51;99039.44;;;9.10;58.90
39487;BME280;25173;50.430;18.926;2023-02-16T10:00:04;99024.63;;;9.18;58.68
39487;BME280;25173;50.430;18.926;2023-02-16T10:03:13;99014.75;;;9.28;58.27
39487;BME280;25173;50.430;18.926;2023-02-16T10:06:27;99028.34;;;9.28;57.39
39487;BME280;25173;50.430;18.926;2023-02-16T10:09:29;99027.19;;;9.24;58.08
39487;BME280;25173;50.430;18.926;2023-02-16T10:12:37;99015.09;;;9.32;57.96
39487;BME280;25173;50.430;18.926;2023-02-16T10:15:42;99007.09;;;9.42;57.69
39487;BME280;25173;50.430;18.926;2023-02-16T10:18:47;99005.31;;;9.48;57.26
39487;BME280;25173;50.430;18.926;2023-02-16T10:21:55;98992.63;;;9.53;57.52
39487;BME280;25173;50.430;18.926;2023-02-16T10:25:22;99006.94;;;9.65;56.95
39487;BME280;25173;50.430;18.926;2023-02-16T10:28:35;98993.28;;;9.77;57.39
39487;BME280;25173;50.430;18.926;2023-02-16T10:31:41;98994.19;;;9.83;57.06
39487;BME280;25173;50.430;18.926;2023-02-16T10:38:04;98979.63;;;9.94;56.59
39487;BME280;25173;50.430;18.926;2023-02-16T10:41:35;98968.44;;;10.07;55.37
39487;BME280;25173;50.430;18.926;2023-02-16T10:44:43;98970.72;;;10.15;56.04
39487;BME280;25173;50.430;18.926;2023-02-16T10:47:45;98967.50;;;10.18;56.28
39487;BME280;25173;50.430;18.926;2023-02-16T10:51:06;98956.44;;;10.25;55.42
39487;BME280;25173;50.430;18.926;2023-02-16T10:54:16;98967.06;;;10.26;55.49
39487;BME280;25173;50.430;18.926;2023-02-16T10:57:29;98955.75;;;10.34;55.46
39487;BME280;25173;50.430;18.926;2023-02-16T11:01:10;98949.91;;;10.47;54.73
39487;BME280;25173;50.430;18.926;2023-02-16T11:04:49;98939.66;;;10.55;53.91
39487;BME280;25173;50.430;18.926;2023-02-16T11:07:53;98946.75;;;10.56;54.88
39487;BME280;25173;50.430;18.926;2023-02-16T11:10:55;98935.34;;;10.59;54.80
39487;BME280;25173;50.430;18.926;2023-02-16T11:14:02;98935.41;;;10.64;54.27
39487;BME280;25173;50.430;18.926;2023-02-16T11:17:10;98943.25;;;10.60;53.87
39487;BME280;25173;50.430;18.926;2023-02-16T11:23:34;98926.53;;;10.73;54.04
39487;BME280;25173;50.430;18.926;2023-02-16T11:26:35;98928.59;;;10.88;54.16
39487;BME280;25173;50.430;18.926;2023-02-16T11:29:36;98920.09;;;11.11;54.17
39487;BME280;25173;50.430;18.926;2023-02-16T11:32:36;98917.81;;;11.35;53.74
39487;BME280;25173;50.430;18.926;2023-02-16T11:35:41;98912.78;;;11.54;53.19
39487;BME280;25173;50.430;18.926;2023-02-16T11:39:40;98921.63;;;11.71;52.50
39487;BME280;25173;50.430;18.926;2023-02-16T11:42:27;98922.63;;;11.92;52.28
39487;BME280;25173;50.430;18.926;2023-02-16T11:45:31;98916.13;;;12.03;52.26
39487;BME280;25173;50.430;18.926;2023-02-16T11:48:33;98909.88;;;12.08;52.11
39487;BME280;25173;50.430;18.926;2023-02-16T11:51:33;98909.41;;;12.21;51.89
39487;BME280;25173;50.430;18.926;2023-02-16T11:54:35;98920.91;;;12.28;51.48
39487;BME280;25173;50.430;18.926;2023-02-16T11:57:35;98919.00;;;12.33;51.42
39487;BME280;25173;50.430;18.926;2023-02-16T12:00:38;98918.75;;;12.40;51.12
39487;BME280;25173;50.430;18.926;2023-02-16T12:21:25;98906.91;;;12.97;48.97
39487;BME280;25173;50.430;18.926;2023-02-16T12:24:48;98893.19;;;12.92;48.77
39487;BME280;25173;50.430;18.926;2023-02-16T12:28:19;98898.44;;;13.03;48.57
39487;BME280;25173;50.430;18.926;2023-02-16T12:31:46;98890.47;;;13.12;49.40
39487;BME280;25173;50.430;18.926;2023-02-16T12:42:07;98881.22;;;13.38;48.77
39487;BME280;25173;50.430;18.926;2023-02-16T12:45:35;98880.09;;;13.49;48.32
39487;BME280;25173;50.430;18.926;2023-02-16T12:48:41;98876.25;;;13.66;49.00
39487;BME280;25173;50.430;18.926;2023-02-16T12:51:47;98872.69;;;13.85;49.01
39487;BME280;25173;50.430;18.926;2023-02-16T12:54:54;98872.88;;;14.04;48.55
39487;BME280;25173;50.430;18.926;2023-02-16T13:01:24;98868.09;;;14.40;48.15
39487;BME280;25173;50.430;18.926;2023-02-16T13:04:44;98862.06;;;14.43;46.79
39487;BME280;25173;50.430;18.926;2023-02-16T13:07:51;98867.00;;;14.36;47.39
39487;BME280;25173;50.430;18.926;2023-02-16T13:11:06;98865.66;;;14.23;46.45
39487;BME280;25173;50.430;18.926;2023-02-16T13:14:22;98856.66;;;14.18;46.88
39487;BME280;25173;50.430;18.926;2023-02-16T13:17:34;98848.97;;;14.30;46.60
39487;BME280;25173;50.430;18.926;2023-02-16T13:20:40;98856.31;;;14.34;47.06
39487;BME280;25173;50.430;18.926;2023-02-16T13:27:14;98841.44;;;14.56;46.20
39487;BME280;25173;50.430;18.926;2023-02-16T13:34:09;98843.41;;;14.89;45.83
39487;BME280;25173;50.430;18.926;2023-02-16T13:37:56;98834.09;;;14.85;44.90
39487;BME280;25173;50.430;18.926;2023-02-16T13:41:31;98823.47;;;14.79;45.75
39487;BME280;25173;50.430;18.926;2023-02-16T13:44:40;98819.41;;;14.71;46.21
39487;BME280;25173;50.430;18.926;2023-02-16T13:47:43;98830.66;;;14.69;46.33
39487;BME280;25173;50.430;18.926;2023-02-16T13:50:44;98824.94;;;14.61;46.29
39487;BME280;25173;50.430;18.926;2023-02-16T13:54:00;98831.66;;;14.45;46.03
39487;BME280;25173;50.430;18.926;2023-02-16T13:57:02;98834.44;;;14.24;46.62
39487;BME280;25173;50.430;18.926;2023-02-16T14:00:04;98827.97;;;14.05;47.05
39487;BME280;25173;50.430;18.926;2023-02-16T14:12:38;98823.72;;;13.58;47.44
39487;BME280;25173;50.430;18.926;2023-02-16T14:15:49;98826.75;;;13.52;47.24
39487;BME280;25173;50.430;18.926;2023-02-16T14:22:08;98825.97;;;13.26;47.44
39487;BME280;25173;50.430;18.926;2023-02-16T14:25:32;98826.78;;;13.11;47.36
39487;BME280;25173;50.430;18.926;2023-02-16T14:31:44;98811.72;;;12.99;47.91
39487;BME280;25173;50.430;18.926;2023-02-16T14:34:55;98817.19;;;12.94;47.74
39487;BME280;25173;50.430;18.926;2023-02-16T14:38:06;98826.47;;;12.82;47.93
39487;BME280;25173;50.430;18.926;2023-02-16T14:47:57;98842.59;;;12.59;48.16
39487;BME280;25173;50.430;18.926;2023-02-16T15:01:16;98836.69;;;11.99;48.40
39487;BME280;25173;50.430;18.926;2023-02-16T15:04:31;98833.81;;;11.79;48.57
39487;BME280;25173;50.430;18.926;2023-02-16T15:07:32;98836.72;;;11.62;49.11
39487;BME280;25173;50.430;18.926;2023-02-16T15:10:36;98834.19;;;11.51;49.22
39487;BME280;25173;50.430;18.926;2023-02-16T15:13:41;98834.16;;;11.41;49.30
39487;BME280;25173;50.430;18.926;2023-02-16T15:16:43;98848.53;;;11.31;49.45
39487;BME280;25173;50.430;18.926;2023-02-16T15:19:43;98847.63;;;11.20;49.70
39487;BME280;25173;50.430;18.926;2023-02-16T15:22:49;98839.50;;;10.94;49.98
39487;BME280;25173;50.430;18.926;2023-02-16T15:26:02;98836.41;;;10.80;50.14
39487;BME280;25173;50.430;18.926;2023-02-16T15:32:17;98825.84;;;10.62;50.52
39487;BME280;25173;50.430;18.926;2023-02-16T15:35:24;98818.16;;;10.54;50.56
39487;BME280;25173;50.430;18.926;2023-02-16T15:38:28;98825.34;;;10.38;50.77
39487;BME280;25173;50.430;18.926;2023-02-16T15:41:37;98824.94;;;10.24;51.02
39487;BME280;25173;50.430;18.926;2023-02-16T15:44:42;98812.75;;;10.10;50.94
39487;BME280;25173;50.430;18.926;2023-02-16T15:47:43;98816.13;;;9.95;51.51
39487;BME280;25173;50.430;18.926;2023-02-16T15:50:44;98801.84;;;9.83;51.76
39487;BME280;25173;50.430;18.926;2023-02-16T15:53:51;98801.47;;;9.74;51.83
39487;BME280;25173;50.430;18.926;2023-02-16T15:57:45;98802.97;;;9.65;52.19
39487;BME280;25173;50.430;18.926;2023-02-16T16:00:41;98806.88;;;9.53;52.33
39487;BME280;25173;50.430;18.926;2023-02-16T16:04:21;98803.72;;;9.39;52.71
39487;BME280;25173;50.430;18.926;2023-02-16T16:07:37;98816.09;;;9.30;52.87
39487;BME280;25173;50.430;18.926;2023-02-16T16:10:39;98809.34;;;9.16;52.82
39487;BME280;25173;50.430;18.926;2023-02-16T16:13:41;98799.72;;;9.08;52.96
39487;BME280;25173;50.430;18.926;2023-02-16T16:16:43;98801.22;;;8.99;53.20
39487;BME280;25173;50.430;18.926;2023-02-16T16:19:44;98797.78;;;8.87;53.33
39487;BME280;25173;50.430;18.926;2023-02-16T16:22:45;98810.94;;;8.78;53.60
39487;BME280;25173;50.430;18.926;2023-02-16T16:25:47;98814.81;;;8.66;53.78
39487;BME280;25173;50.430;18.926;2023-02-16T16:28:47;98807.78;;;8.53;54.15
39487;BME280;25173;50.430;18.926;2023-02-16T16:31:51;98807.38;;;8.44;54.26
39487;BME280;25173;50.430;18.926;2023-02-16T16:34:52;98810.72;;;8.35;54.38
39487;BME280;25173;50.430;18.926;2023-02-16T16:37:53;98808.00;;;8.23;54.70
39487;BME280;25173;50.430;18.926;2023-02-16T16:41:01;98813.59;;;8.16;54.94
39487;BME280;25173;50.430;18.926;2023-02-16T16:44:03;98808.81;;;8.07;54.97
39487;BME280;25173;50.430;18.926;2023-02-16T16:47:20;98798.91;;;8.01;55.39
39487;BME280;25173;50.430;18.926;2023-02-16T16:50:36;98806.13;;;7.95;55.69
39487;BME280;25173;50.430;18.926;2023-02-16T16:53:49;98804.84;;;7.86;55.54
39487;BME280;25173;50.430;18.926;2023-02-16T16:56:51;98805.25;;;7.78;55.88
39487;BME280;25173;50.430;18.926;2023-02-16T16:59:51;98806.19;;;7.72;55.93
39487;BME280;25173;50.430;18.926;2023-02-16T17:02:52;98804.94;;;7.63;56.16
39487;BME280;25173;50.430;18.926;2023-02-16T17:05:53;98813.78;;;7.58;56.37
39487;BME280;25173;50.430;18.926;2023-02-16T17:08:53;98818.72;;;7.50;56.41
39487;BME280;25173;50.430;18.926;2023-02-16T17:11:54;98815.31;;;7.43;56.66
39487;BME280;25173;50.430;18.926;2023-02-16T17:16:06;98812.28;;;7.39;56.75
39487;BME280;25173;50.430;18.926;2023-02-16T17:18:41;98805.69;;;7.35;57.16
39487;BME280;25173;50.430;18.926;2023-02-16T17:21:43;98804.16;;;7.27;56.87
39487;BME280;25173;50.430;18.926;2023-02-16T17:24:47;98797.91;;;7.27;57.03
39487;BME280;25173;50.430;18.926;2023-02-16T17:27:52;98803.59;;;7.25;57.05
39487;BME280;25173;50.430;18.926;2023-02-16T17:30:53;98800.28;;;7.23;57.17
39487;BME280;25173;50.430;18.926;2023-02-16T17:33:54;98798.03;;;7.20;57.39
39487;BME280;25173;50.430;18.926;2023-02-16T17:37:02;98811.56;;;7.20;57.53
39487;BME280;25173;50.430;18.926;2023-02-16T17:40:10;98806.88;;;7.16;57.67
39487;BME280;25173;50.430;18.926;2023-02-16T17:43:12;98808.75;;;7.15;57.65
39487;BME280;25173;50.430;18.926;2023-02-16T17:46:14;98801.09;;;7.12;57.73
39487;BME280;25173;50.430;18.926;2023-02-16T17:49:16;98812.41;;;7.09;57.85
39487;BME280;25173;50.430;18.926;2023-02-16T17:52:16;98820.31;;;7.11;57.62
39487;BME280;25173;50.430;18.926;2023-02-16T17:55:17;98822.75;;;7.12;57.79
39487;BME280;25173;50.430;18.926;2023-02-16T17:58:18;98819.13;;;7.07;57.88
39487;BME280;25173;50.430;18.926;2023-02-16T18:01:19;98823.13;;;7.04;57.90
39487;BME280;25173;50.430;18.926;2023-02-16T18:04:20;98819.69;;;6.97;57.77
39487;BME280;25173;50.430;18.926;2023-02-16T18:07:21;98810.88;;;6.90;57.99
39487;BME280;25173;50.430;18.926;2023-02-16T18:10:40;98824.88;;;6.87;58.45